createdAt,value
2022-10-04T00:02:15.580Z,9.40
2022-10-04T00:05:00.016Z,9.67
2022-10-04T00:07:34.456Z,9.13
2022-10-04T00:10:07.919Z,11.90
2022-10-04T00:12:57.097Z,10.73
2022-10-04T00:15:30.578Z,11.70
2022-10-04T00:18:12.588Z,10.70
2022-10-04T00:20:53.568Z,9.40
2022-10-04T00:23:38.442Z,15.60
2022-10-04T00:26:12.847Z,26.10
2022-10-04T00:28:40.080Z,9.53
2022-10-04T00:31:22.323Z,15.60
2022-10-04T00:33:55.299Z,10.30
2022-10-04T00:37:01.401Z,15.53
2022-10-04T00:39:34.701Z,14.23
2022-10-04T00:42:10.680Z,9.30
2022-10-04T00:44:51.928Z,12.60
2022-10-04T00:47:37.074Z,9.87
2022-10-04T00:50:25.910Z,12.30
2022-10-04T00:52:56.948Z,10.80
2022-10-04T00:55:37.599Z,18.97
2022-10-04T00:58:12.608Z,15.27
2022-10-04T01:00:41.647Z,14.80
2022-10-04T01:03:15.557Z,14.60
2022-10-04T01:05:48.186Z,13.20
2022-10-04T01:08:35.236Z,10.30
2022-10-04T01:11:10.901Z,12.90
2022-10-04T01:13:42.950Z,13.77
2022-10-04T01:16:19.645Z,10.53
2022-10-04T01:18:48.015Z,16.40
2022-10-04T01:21:20.902Z,11.50
2022-10-04T01:23:59.666Z,13.27
2022-10-04T01:26:32.579Z,12.53
2022-10-04T01:29:13.232Z,22.17
2022-10-04T01:31:50.913Z,18.00
2022-10-04T01:34:26.620Z,11.60
2022-10-04T01:36:56.007Z,17.90
2022-10-04T01:39:24.443Z,12.80
2022-10-04T01:42:05.942Z,18.07
2022-10-04T01:44:39.793Z,16.80
2022-10-04T01:47:14.146Z,16.57
2022-10-04T01:49:44.431Z,28.10
2022-10-04T01:52:19.765Z,17.03
2022-10-04T01:54:51.154Z,14.33
2022-10-04T01:57:26.753Z,10.80
2022-10-04T02:00:03.254Z,20.63
2022-10-04T02:02:39.297Z,16.20
2022-10-04T02:05:10.322Z,13.63
2022-10-04T02:07:39.887Z,14.63
2022-10-04T02:10:16.017Z,20.37
2022-10-04T02:12:49.509Z,15.90
2022-10-04T02:15:18.534Z,15.43
2022-10-04T02:17:46.761Z,14.00
2022-10-04T02:20:23.750Z,14.50
2022-10-04T02:22:56.576Z,14.40
2022-10-04T02:25:23.412Z,11.80
2022-10-04T02:27:54.001Z,15.30
2022-10-04T02:30:21.493Z,12.63
2022-10-04T02:32:58.194Z,27.13
2022-10-04T02:35:32.755Z,15.33
2022-10-04T02:38:23.468Z,12.63
2022-10-04T02:41:04.111Z,13.63
2022-10-04T02:43:40.008Z,11.03
2022-10-04T02:46:13.574Z,16.03
2022-10-04T02:48:49.508Z,13.33
2022-10-04T02:51:19.246Z,10.20
2022-10-04T02:54:02.995Z,14.80
2022-10-04T02:56:31.448Z,18.70
2022-10-04T02:59:05.549Z,13.33
2022-10-04T03:01:43.770Z,33.00
2022-10-04T03:04:14.946Z,16.00
2022-10-04T03:06:44.273Z,12.23
2022-10-04T03:09:11.110Z,19.30
2022-10-04T03:11:40.609Z,27.13
2022-10-04T03:14:14.140Z,15.53
2022-10-04T03:16:45.105Z,14.03
2022-10-04T03:19:15.857Z,12.80
2022-10-04T03:21:44.874Z,12.10
2022-10-04T03:24:19.828Z,12.37
2022-10-04T03:26:50.317Z,14.80
2022-10-04T03:29:19.125Z,17.40
2022-10-04T03:31:51.324Z,18.13
2022-10-04T03:34:37.615Z,18.30
2022-10-04T03:37:09.737Z,21.00
2022-10-04T03:39:43.648Z,17.53
2022-10-04T03:42:26.057Z,16.80
2022-10-04T03:44:56.255Z,19.83
2022-10-04T03:47:30.808Z,16.73
2022-10-04T03:50:03.034Z,13.80
2022-10-04T03:52:33.845Z,18.43
2022-10-04T03:55:04.851Z,12.97
2022-10-04T03:57:32.706Z,10.97
2022-10-04T04:00:00.559Z,12.80
2022-10-04T04:02:34.031Z,13.87
2022-10-04T04:05:11.343Z,21.50
2022-10-04T04:07:47.904Z,16.20
2022-10-04T04:10:28.387Z,26.50
2022-10-04T04:13:15.980Z,19.97
2022-10-04T04:15:45.373Z,18.83
2022-10-04T04:18:22.418Z,14.07
2022-10-04T04:20:52.037Z,19.83
2022-10-04T04:23:32.819Z,18.03
2022-10-04T04:26:19.794Z,15.70
2022-10-04T04:29:16.532Z,14.87
2022-10-04T04:31:52.943Z,17.30
2022-10-04T04:34:29.911Z,13.70
2022-10-04T04:37:02.039Z,13.83
2022-10-04T04:39:34.269Z,21.53
2022-10-04T04:42:02.800Z,17.30
2022-10-04T04:44:29.732Z,15.33
2022-10-04T04:47:00.717Z,24.40
2022-10-04T04:49:30.074Z,13.90
2022-10-04T04:51:58.034Z,16.23
2022-10-04T04:54:27.232Z,19.77
2022-10-04T04:56:59.147Z,21.13
2022-10-04T04:59:27.857Z,18.37
2022-10-04T05:01:54.880Z,28.43
2022-10-04T05:04:26.257Z,14.80
2022-10-04T05:07:02.463Z,17.27
2022-10-04T05:09:33.571Z,19.00
2022-10-04T05:12:07.654Z,20.60
2022-10-04T05:14:39.732Z,13.93
2022-10-04T05:17:06.844Z,20.73
2022-10-04T05:19:39.537Z,19.43
2022-10-04T05:22:13.393Z,11.73
2022-10-04T05:24:43.048Z,16.37
2022-10-04T05:27:17.673Z,19.80
2022-10-04T05:29:55.899Z,16.37
2022-10-04T05:32:47.344Z,16.53
2022-10-04T05:35:20.036Z,20.57
2022-10-04T05:37:59.343Z,22.73
2022-10-04T05:40:31.711Z,15.03
2022-10-04T05:42:59.607Z,18.93
2022-10-04T05:45:28.727Z,15.47
2022-10-04T05:48:01.285Z,14.33
2022-10-04T05:50:37.085Z,18.53
2022-10-04T05:53:33.589Z,21.33
2022-10-04T05:56:19.171Z,22.23
2022-10-04T05:59:16.988Z,19.10
2022-10-04T06:02:31.272Z,27.87
2022-10-04T06:05:15.856Z,18.70
2022-10-04T06:08:08.176Z,21.63
2022-10-04T06:10:49.619Z,22.30
2022-10-04T06:13:22.117Z,23.67
2022-10-04T06:16:04.570Z,21.70
2022-10-04T06:18:59.379Z,20.87
2022-10-04T06:21:28.699Z,16.90
2022-10-04T06:24:17.235Z,17.30
2022-10-04T06:26:48.801Z,18.43
2022-10-04T06:29:20.934Z,22.90
2022-10-04T06:32:27.439Z,15.13
2022-10-04T06:35:05.041Z,15.90
2022-10-04T06:37:43.480Z,22.23
2022-10-04T06:40:22.376Z,28.90
2022-10-04T06:42:55.131Z,22.50
2022-10-04T06:45:37.320Z,22.00
2022-10-04T06:48:41.361Z,24.40
2022-10-04T06:51:23.546Z,20.20
2022-10-04T06:54:07.385Z,20.50
2022-10-04T06:57:32.691Z,20.87
2022-10-04T07:00:08.668Z,23.70
2022-10-04T07:03:04.212Z,21.20
2022-10-04T07:05:50.623Z,23.83
2022-10-04T07:08:41.527Z,23.20
2022-10-04T07:13:44.978Z,20.03
2022-10-04T07:16:36.505Z,20.47
2022-10-04T07:19:28.312Z,24.10
2022-10-04T07:22:06.902Z,22.13
2022-10-04T07:25:03.432Z,26.53
2022-10-04T07:27:42.155Z,37.40
2022-10-04T07:30:15.999Z,22.07
2022-10-04T07:32:48.348Z,23.97
2022-10-04T07:35:40.045Z,20.17
2022-10-04T07:38:29.827Z,23.20
2022-10-04T07:41:19.016Z,18.37
2022-10-04T07:43:56.789Z,19.40
2022-10-04T07:46:58.174Z,24.43
2022-10-04T07:49:26.954Z,26.03
2022-10-04T07:52:19.025Z,23.03
2022-10-04T07:54:58.546Z,24.17
2022-10-04T07:57:48.018Z,22.30
2022-10-04T08:00:24.030Z,21.87
2022-10-04T08:02:53.546Z,23.93
2022-10-04T08:05:23.343Z,28.07
2022-10-04T08:08:14.374Z,29.03
2022-10-04T08:11:18.664Z,24.50
2022-10-04T08:14:01.358Z,28.33
2022-10-04T08:16:54.946Z,25.33
2022-10-04T08:19:30.718Z,22.80
2022-10-04T08:22:04.086Z,26.63
2022-10-04T08:24:33.626Z,25.10
2022-10-04T08:27:29.315Z,20.93
2022-10-04T08:29:58.048Z,23.87
2022-10-04T08:32:35.954Z,20.87
2022-10-04T08:35:05.918Z,19.50
2022-10-04T08:38:06.067Z,21.40
2022-10-04T08:41:08.412Z,26.60
2022-10-04T08:43:56.923Z,22.90
2022-10-04T08:46:29.949Z,23.40
2022-10-04T08:49:34.502Z,20.57
2022-10-04T08:52:32.401Z,23.97
2022-10-04T08:55:20.828Z,21.57
2022-10-04T08:58:13.916Z,20.20
2022-10-04T09:01:11.648Z,22.70
2022-10-04T09:04:01.833Z,21.03
2022-10-04T09:06:53.782Z,19.10
2022-10-04T09:09:44.839Z,19.17
2022-10-04T09:12:14.746Z,18.87
2022-10-04T09:15:06.536Z,12.67
2022-10-04T09:17:39.535Z,18.60
2022-10-04T09:20:40.156Z,16.87
2022-10-04T09:23:16.007Z,23.43
2022-10-04T09:26:15.194Z,18.10
2022-10-04T09:29:04.759Z,20.30
2022-10-04T09:31:48.668Z,10.20
2022-10-04T09:34:37.275Z,12.97
2022-10-04T09:37:22.875Z,13.40
2022-10-04T09:40:20.816Z,15.03
2022-10-04T09:43:09.243Z,15.00
2022-10-04T09:46:00.906Z,13.50
2022-10-04T09:48:43.229Z,14.00
2022-10-04T09:51:16.127Z,13.33
2022-10-04T09:54:07.022Z,21.63
2022-10-04T09:56:56.574Z,15.93
2022-10-04T09:59:32.332Z,11.33
2022-10-04T10:02:10.002Z,24.27
2022-10-04T10:05:04.296Z,9.47
2022-10-04T10:07:53.601Z,12.63
2022-10-04T10:11:10.526Z,10.00
2022-10-04T10:13:43.330Z,17.70
2022-10-04T10:16:29.900Z,11.40
2022-10-04T10:19:25.022Z,10.83
2022-10-04T10:21:55.008Z,14.70
2022-10-04T10:24:46.503Z,13.10
2022-10-04T10:27:45.094Z,19.03
2022-10-04T10:30:26.035Z,16.23
2022-10-04T10:33:38.255Z,16.03
2022-10-04T10:36:29.080Z,11.83
2022-10-04T10:39:17.754Z,9.33
2022-10-04T10:42:06.256Z,11.33
2022-10-04T10:44:51.453Z,9.07
2022-10-04T10:47:35.452Z,10.20
2022-10-04T10:50:13.862Z,10.53
2022-10-04T10:53:29.951Z,11.37
2022-10-04T10:56:19.241Z,14.73
2022-10-04T10:59:07.012Z,15.93
2022-10-04T11:01:47.663Z,13.33
2022-10-04T11:04:42.250Z,8.37
2022-10-04T11:08:04.699Z,8.43
2022-10-04T11:10:59.844Z,7.57
2022-10-04T11:13:54.319Z,9.73
2022-10-04T11:16:47.654Z,7.27
2022-10-04T11:19:39.295Z,10.80
2022-10-04T11:22:27.323Z,7.33
2022-10-04T11:25:12.919Z,8.00
2022-10-04T11:27:58.716Z,5.63
2022-10-04T11:30:56.091Z,8.53
2022-10-04T11:33:55.963Z,10.33
2022-10-04T11:36:39.088Z,7.80
2022-10-04T11:39:18.073Z,14.53
2022-10-04T11:41:53.857Z,9.93
2022-10-04T11:44:34.736Z,10.23
2022-10-04T11:47:09.986Z,10.00
2022-10-04T11:49:49.016Z,8.70
2022-10-04T11:52:27.576Z,9.17
2022-10-04T11:55:37.528Z,6.43
2022-10-04T11:58:12.142Z,9.27
2022-10-04T12:01:16.568Z,8.07
2022-10-04T12:04:05.823Z,6.93
2022-10-04T12:07:08.254Z,9.73
2022-10-04T12:09:42.093Z,6.70
2022-10-04T12:12:53.032Z,8.70
2022-10-04T12:15:38.975Z,11.07
2022-10-04T12:18:35.716Z,8.50
2022-10-04T12:21:25.205Z,9.20
2022-10-04T12:24:03.325Z,5.97
2022-10-04T12:26:44.176Z,4.63
2022-10-04T12:29:48.776Z,7.63
2022-10-04T12:32:24.592Z,12.70
2022-10-04T12:35:12.317Z,7.93
2022-10-04T12:38:16.224Z,6.87
2022-10-04T12:41:16.889Z,6.37
2022-10-04T12:44:14.458Z,7.40
2022-10-04T12:47:05.924Z,9.77
2022-10-04T12:49:49.129Z,5.30
2022-10-04T12:52:24.579Z,4.73
2022-10-04T12:55:22.264Z,5.20
2022-10-04T12:58:03.809Z,8.87
2022-10-04T13:00:41.533Z,11.33
2022-10-04T13:03:20.648Z,4.20
2022-10-04T13:05:47.704Z,7.87
2022-10-04T13:08:38.985Z,9.83
2022-10-04T13:11:25.017Z,10.50
2022-10-04T13:14:11.041Z,6.37
2022-10-04T13:19:53.400Z,9.93
2022-10-04T13:22:55.811Z,10.63
2022-10-04T13:25:41.726Z,7.40
2022-10-04T13:28:23.708Z,7.03
2022-10-04T13:31:04.276Z,10.00
2022-10-04T13:33:45.969Z,11.87
2022-10-04T13:36:45.391Z,9.37
2022-10-04T13:39:33.549Z,6.50
2022-10-04T13:42:14.187Z,6.80
2022-10-04T13:45:17.553Z,5.47
2022-10-04T13:48:12.578Z,8.97
2022-10-04T13:50:57.847Z,7.70
2022-10-04T13:54:09.490Z,8.27
2022-10-04T13:56:52.047Z,7.63
2022-10-04T13:59:37.790Z,7.80
2022-10-04T14:02:21.436Z,10.50
2022-10-04T14:05:25.862Z,7.00
2022-10-04T14:08:30.864Z,6.40
2022-10-04T14:11:38.911Z,6.30
2022-10-04T14:14:17.568Z,7.50
2022-10-04T14:17:05.149Z,7.07
2022-10-04T14:19:59.254Z,6.43
2022-10-04T14:22:41.440Z,12.07
2022-10-04T14:25:08.412Z,4.90
2022-10-04T14:27:50.507Z,4.77
2022-10-04T14:30:30.716Z,7.10
2022-10-04T14:33:33.177Z,6.47
2022-10-04T14:36:30.996Z,4.30
2022-10-04T14:39:13.817Z,14.07
2022-10-04T14:42:25.200Z,6.50
2022-10-04T14:45:16.993Z,4.20
2022-10-04T14:48:08.436Z,6.07
2022-10-04T14:50:51.178Z,6.93
2022-10-04T14:53:30.418Z,3.87
2022-10-04T14:56:20.811Z,3.90
2022-10-04T14:58:57.483Z,4.53
2022-10-04T15:01:27.698Z,5.80
2022-10-04T15:04:27.859Z,4.47
2022-10-04T15:06:58.268Z,8.70
2022-10-04T15:09:52.008Z,8.30
2022-10-04T15:12:40.582Z,6.00
2022-10-04T15:15:13.381Z,5.27
2022-10-04T15:18:05.306Z,3.90
2022-10-04T15:20:57.025Z,6.70
2022-10-04T15:23:37.940Z,4.00
2022-10-04T15:26:14.671Z,5.07
2022-10-04T15:28:50.557Z,4.90
2022-10-04T15:31:54.587Z,4.33
2022-10-04T15:34:27.129Z,3.57
2022-10-04T15:37:01.747Z,6.03
2022-10-04T15:39:31.471Z,8.70
2022-10-04T15:42:33.583Z,4.70
2022-10-04T15:45:18.984Z,4.63
2022-10-04T15:47:54.882Z,4.60
2022-10-04T15:50:39.395Z,4.63
2022-10-04T15:53:20.245Z,9.03
2022-10-04T15:56:33.066Z,4.10
2022-10-04T15:59:28.185Z,5.67
2022-10-04T16:02:28.516Z,4.70
2022-10-04T16:05:25.897Z,5.07
2022-10-04T16:08:07.343Z,5.00
2022-10-04T16:11:02.308Z,6.23
2022-10-04T16:13:45.354Z,3.30
2022-10-04T16:16:18.225Z,5.03
2022-10-04T16:19:09.851Z,4.77
2022-10-04T16:21:48.922Z,4.53
2022-10-04T16:24:21.530Z,5.80
2022-10-04T16:26:50.882Z,5.23
2022-10-04T16:29:53.988Z,5.13
2022-10-04T16:33:01.194Z,4.50
2022-10-04T16:35:40.183Z,7.63
2022-10-04T16:38:13.261Z,5.43
2022-10-04T16:40:52.460Z,7.50
2022-10-04T16:43:19.120Z,5.60
2022-10-04T16:46:16.113Z,5.77
2022-10-04T16:49:02.919Z,8.47
2022-10-04T16:51:45.879Z,7.90
2022-10-04T16:54:46.598Z,7.97
2022-10-04T16:57:15.314Z,5.70
2022-10-04T16:59:49.057Z,5.47
2022-10-04T17:02:42.412Z,6.53
2022-10-04T17:05:32.272Z,9.10
2022-10-04T17:08:04.780Z,5.17
2022-10-04T17:10:57.904Z,7.47
2022-10-04T17:14:01.149Z,12.57
2022-10-04T17:16:38.719Z,8.50
2022-10-04T17:19:42.435Z,8.27
2022-10-04T17:22:35.925Z,8.30
2022-10-04T17:25:33.183Z,6.37
2022-10-04T17:28:29.128Z,8.30
2022-10-04T17:31:02.912Z,9.40
2022-10-04T17:34:01.953Z,10.80
2022-10-04T17:36:34.277Z,11.77
2022-10-04T17:39:25.674Z,6.60
2022-10-04T17:42:34.058Z,7.87
2022-10-04T17:45:19.671Z,7.90
2022-10-04T17:48:35.678Z,5.10
2022-10-04T17:51:51.672Z,3.53
2022-10-04T17:54:56.434Z,9.97
2022-10-04T17:57:35.187Z,8.60
2022-10-04T18:00:20.926Z,21.23
2022-10-04T18:03:05.620Z,8.43
2022-10-04T18:05:41.375Z,9.20
2022-10-04T18:08:12.776Z,10.37
2022-10-04T18:11:00.503Z,8.90
2022-10-04T18:13:45.459Z,7.67
2022-10-04T18:16:30.296Z,7.70
2022-10-04T18:19:02.550Z,12.17
2022-10-04T18:21:31.212Z,13.87
2022-10-04T18:24:18.111Z,13.63
2022-10-04T18:27:01.080Z,15.33
2022-10-04T18:29:39.290Z,13.10
2022-10-04T18:32:35.769Z,13.17
2022-10-04T18:35:18.269Z,5.67
2022-10-04T18:37:45.065Z,7.30
2022-10-04T18:40:22.030Z,7.53
2022-10-04T18:43:00.215Z,13.67
2022-10-04T18:45:29.221Z,9.57
2022-10-04T18:47:58.851Z,8.30
2022-10-04T18:50:44.963Z,7.20
2022-10-04T18:53:36.407Z,12.03
2022-10-04T18:56:09.763Z,9.23
2022-10-04T18:59:11.830Z,7.40
2022-10-04T19:02:00.889Z,7.63
2022-10-04T19:04:48.425Z,8.17
2022-10-04T19:07:46.133Z,7.53
2022-10-04T19:10:25.854Z,7.10
2022-10-04T19:13:04.493Z,8.57
2022-10-04T19:15:55.872Z,11.33
2022-10-04T19:18:44.227Z,9.93
2022-10-04T19:21:48.519Z,13.33
2022-10-04T19:24:24.436Z,8.93
2022-10-04T19:26:59.632Z,8.03
2022-10-04T19:29:47.889Z,13.33
2022-10-04T19:32:22.016Z,10.80
2022-10-04T19:35:14.938Z,12.00
2022-10-04T19:38:18.236Z,15.97
2022-10-04T19:40:52.238Z,7.50
2022-10-04T19:43:42.177Z,9.07
2022-10-04T19:46:21.647Z,8.73
2022-10-04T19:48:50.502Z,7.97
2022-10-04T19:51:43.580Z,11.87
2022-10-04T19:54:16.701Z,12.93
2022-10-04T19:56:49.178Z,7.80
2022-10-04T19:59:18.815Z,11.17
2022-10-04T20:01:45.983Z,10.13
2022-10-04T20:04:35.094Z,7.53
2022-10-04T20:07:05.127Z,9.30
2022-10-04T20:09:41.080Z,7.77
2022-10-04T20:12:33.581Z,16.23
2022-10-04T20:15:43.293Z,11.37
2022-10-04T20:18:32.011Z,11.50
2022-10-04T20:21:01.687Z,12.87
2022-10-04T20:23:37.851Z,11.33
2022-10-04T20:26:09.339Z,15.50
2022-10-04T20:28:41.950Z,9.57
2022-10-04T20:31:29.753Z,11.13
2022-10-04T20:34:23.408Z,13.67
2022-10-04T20:36:51.797Z,13.47
2022-10-04T20:39:40.289Z,13.20
2022-10-04T20:42:24.894Z,14.80
2022-10-04T20:45:10.297Z,8.50
2022-10-04T20:47:39.149Z,11.87
2022-10-04T20:50:42.097Z,14.60
2022-10-04T20:53:21.930Z,11.50
2022-10-04T20:55:50.282Z,9.43
2022-10-04T20:58:32.135Z,12.53
2022-10-04T21:01:38.853Z,11.50
2022-10-04T21:04:32.215Z,10.77
2022-10-04T21:07:01.502Z,11.47
2022-10-04T21:09:30.915Z,12.47
2022-10-04T21:11:58.772Z,16.50
2022-10-04T21:14:30.312Z,10.53
2022-10-04T21:17:24.536Z,12.77
2022-10-04T21:19:51.361Z,10.30
2022-10-04T21:22:18.127Z,15.63
2022-10-04T21:24:51.333Z,10.77
2022-10-04T21:27:37.182Z,10.30
2022-10-04T21:30:24.659Z,17.90
2022-10-04T21:32:51.420Z,12.30
2022-10-04T21:35:18.171Z,13.30
2022-10-04T21:37:44.910Z,11.50
2022-10-04T21:40:13.606Z,12.33
2022-10-04T21:42:40.536Z,15.50
2022-10-04T21:45:07.762Z,14.00
2022-10-04T21:47:34.509Z,10.83
2022-10-04T21:50:01.199Z,12.43
2022-10-04T21:52:27.957Z,18.77
2022-10-04T21:54:54.724Z,9.47
2022-10-04T21:57:23.858Z,19.30
2022-10-04T21:59:50.650Z,14.70
2022-10-04T22:02:17.534Z,16.47
2022-10-04T22:04:44.279Z,14.77
2022-10-04T22:07:10.991Z,12.27
2022-10-04T22:09:37.742Z,11.20
2022-10-04T22:12:04.627Z,18.03
2022-10-04T22:14:31.435Z,14.10
2022-10-04T22:16:58.244Z,15.80
2022-10-04T22:19:24.997Z,10.77
2022-10-04T22:21:51.786Z,10.73
2022-10-04T22:24:20.259Z,14.87
2022-10-04T22:26:48.257Z,13.63
2022-10-04T22:29:17.628Z,12.80
2022-10-04T22:31:51.035Z,15.63
2022-10-04T22:34:20.250Z,14.60
2022-10-04T22:36:49.775Z,13.67
2022-10-04T22:39:18.680Z,13.53
2022-10-04T22:41:53.290Z,20.93
2022-10-04T22:44:23.345Z,16.00
2022-10-04T22:46:52.904Z,16.20
2022-10-04T22:49:25.630Z,16.63
2022-10-04T22:51:54.582Z,13.40
2022-10-04T22:54:27.967Z,16.50
2022-10-04T22:56:56.528Z,13.83
2022-10-04T22:59:33.566Z,15.60
2022-10-04T23:02:05.644Z,20.63
2022-10-04T23:04:32.514Z,14.20
2022-10-04T23:06:59.370Z,15.13
2022-10-04T23:09:26.248Z,15.70
2022-10-04T23:11:52.998Z,13.27
2022-10-04T23:14:19.727Z,13.20
2022-10-04T23:16:46.883Z,20.13
2022-10-04T23:19:18.927Z,11.83
2022-10-04T23:21:49.004Z,13.50
2022-10-04T23:24:21.703Z,13.20
2022-10-04T23:26:58.624Z,20.80
2022-10-04T23:29:29.932Z,21.13
2022-10-04T23:31:57.696Z,19.77
2022-10-04T23:34:36.134Z,12.93
2022-10-04T23:37:03.591Z,20.57
2022-10-04T23:39:36.020Z,11.43
2022-10-04T23:42:17.294Z,14.80
2022-10-04T23:44:44.360Z,15.13
2022-10-04T23:47:21.998Z,11.60
2022-10-04T23:49:51.718Z,13.00
2022-10-04T23:52:24.619Z,13.13
2022-10-04T23:54:53.323Z,11.87
2022-10-04T23:57:25.921Z,12.63
2022-10-04T23:59:52.857Z,15.17
